Observation data for Plains on 01/12/2018      Previous  Date  Next       Current Mesonet Observations  Soil Data  Daily Summary Page  Observations in Plain Language
KPPS 120600Z 07000KT M02/M12 A3027 RMK A01 T10151122  RH  044%=      5-min Rain = 0
KPPS 120605Z 07000KT M02/M12 A3027 RMK A01 T10191124  RH  044%=      5-min Rain = 0
KPPS 120610Z 07000KT M02/M12 A3027 RMK A01 T10211124  RH  045%=      5-min Rain = 0
KPPS 120615Z 00000KT M02/M13 A3027 RMK A01 T10211125  RH  045%=      5-min Rain = 0
KPPS 120620Z 07000KT M03/M13 A3027 RMK A01 T10301130  RH  046%=      5-min Rain = 0
KPPS 120625Z 19002KT M03/M13 A3027 RMK A01 T10331128  RH  047%=      5-min Rain = 0
KPPS 120630Z 19002KT M04/M13 A3027 RMK A01 T10361130  RH  048%=      5-min Rain = 0
KPPS 120635Z 18003KT M04/M13 A3027 RMK A01 T10411133  RH  048%=      5-min Rain = 0
KPPS 120640Z 19003KT M05/M14 A3026 RMK A01 T10481137  RH  049%=      5-min Rain = 0
KPPS 120645Z 19004KT M05/M14 A3026 RMK A01 T10541138  RH  051%=      5-min Rain = 0
KPPS 120650Z 20004KT M06/M14 A3026 RMK A01 T10561138  RH  052%=      5-min Rain = 0
KPPS 120655Z 20004KT M06/M14 A3026 RMK A01 T10581138  RH  053%=      5-min Rain = 0
KPPS 120700Z 20004KT M06/M14 A3026 RMK A01 T10561137  RH  052%=      5-min Rain = 0
KPPS 120705Z 20005KT M06/M14 A3025 RMK A01 T10551135  RH  053%=      5-min Rain = 0
KPPS 120710Z 19005KT M05/M13 A3025 RMK A01 T10511133  RH  052%=      5-min Rain = 0
KPPS 120715Z 19005KT M05/M13 A3025 RMK A01 T10511134  RH  052%=      5-min Rain = 0
KPPS 120720Z 20004KT M05/M14 A3025 RMK A01 T10531136  RH  052%=      5-min Rain = 0
KPPS 120725Z 19004KT M05/M14 A3025 RMK A01 T10541135  RH  053%=      5-min Rain = 0
KPPS 120730Z 19005KT M05/M13 A3025 RMK A01 T10491129  RH  053%=      5-min Rain = 0
KPPS 120735Z 18004KT M05/M13 A3025 RMK A01 T10501131  RH  053%=      5-min Rain = 0
KPPS 120740Z 18004KT M05/M13 A3025 RMK A01 T10471126  RH  054%=      5-min Rain = 0
KPPS 120745Z 18004KT M04/M12 A3025 RMK A01 T10401122  RH  052%=      5-min Rain = 0
KPPS 120750Z 18004KT M04/M13 A3025 RMK A01 T10391125  RH  051%=      5-min Rain = 0
KPPS 120755Z 18003KT M04/M13 A3025 RMK A01 T10421129  RH  051%=      5-min Rain = 0
KPPS 120800Z 17002KT M05/M13 A3025 RMK A01 T10481132  RH  051%=      5-min Rain = 0
KPPS 120805Z 17002KT M05/M13 A3025 RMK A01 T10521134  RH  052%=      5-min Rain = 0
KPPS 120810Z 17003KT M05/M13 A3025 RMK A01 T10511130  RH  053%=      5-min Rain = 0
KPPS 120815Z 17003KT M04/M12 A3025 RMK A01 T10431124  RH  053%=      5-min Rain = 0
KPPS 120820Z 17003KT M04/M12 A3025 RMK A01 T10381123  RH  051%=      5-min Rain = 0
KPPS 120825Z 17003KT M03/M12 A3025 RMK A01 T10301119  RH  050%=      5-min Rain = 0
KPPS 120830Z 18004KT M03/M12 A3025 RMK A01 T10271120  RH  048%=      5-min Rain = 0
KPPS 120835Z 19005KT M03/M12 A3025 RMK A01 T10301122  RH  049%=      5-min Rain = 0
KPPS 120840Z 19005KT M04/M13 A3025 RMK A01 T10391127  RH  050%=      5-min Rain = 0
KPPS 120845Z 19004KT M05/M13 A3025 RMK A01 T10451129  RH  052%=      5-min Rain = 0
KPPS 120850Z 19004KT M05/M13 A3025 RMK A01 T10481129  RH  053%=      5-min Rain = 0
KPPS 120855Z 20004KT M05/M13 A3025 RMK A01 T10501131  RH  053%=      5-min Rain = 0
KPPS 120900Z 22004KT M05/M13 A3025 RMK A01 T10511130  RH  053%=      5-min Rain = 0
KPPS 120905Z 24002KT M05/M13 A3025 RMK A01 T10521130  RH  054%=      5-min Rain = 0
KPPS 120910Z 20003KT M05/M13 A3025 RMK A01 T10491126  RH  054%=      5-min Rain = 0
KPPS 120915Z 19004KT M04/M12 A3024 RMK A01 T10381121  RH  052%=      5-min Rain = 0
KPPS 120920Z 19003KT M04/M12 A3024 RMK A01 T10351121  RH  051%=      5-min Rain = 0
KPPS 120925Z 19004KT M04/M12 A3023 RMK A01 T10371123  RH  051%=      5-min Rain = 0
KPPS 120930Z 19005KT M04/M12 A3023 RMK A01 T10371121  RH  052%=      5-min Rain = 0
KPPS 120935Z 18005KT M03/M12 A3023 RMK A01 T10341121  RH  051%=      5-min Rain = 0
KPPS 120940Z 18004KT M03/M12 A3022 RMK A01 T10311120  RH  050%=      5-min Rain = 0
KPPS 120945Z 19004KT M03/M12 A3022 RMK A01 T10331122  RH  050%=      5-min Rain = 0
KPPS 120950Z 19004KT M04/M12 A3022 RMK A01 T10361124  RH  050%=      5-min Rain = 0
KPPS 120955Z 19005KT M04/M12 A3022 RMK A01 T10381124  RH  051%=      5-min Rain = 0
KPPS 121000Z 18005KT M04/M13 A3022 RMK A01 T10401125  RH  051%=      5-min Rain = 0
KPPS 121005Z 19004KT M04/M13 A3022 RMK A01 T10421127  RH  051%=      5-min Rain = 0
KPPS 121010Z 19004KT M05/M13 A3022 RMK A01 T10471130  RH  052%=      5-min Rain = 0
KPPS 121015Z 20005KT M05/M13 A3022 RMK A01 T10451125  RH  053%=      5-min Rain = 0
KPPS 121020Z 20005KT M05/M13 A3022 RMK A01 T10451125  RH  053%=      5-min Rain = 0
KPPS 121025Z 20005KT M04/M12 A3021 RMK A01 T10431123  RH  053%=      5-min Rain = 0
KPPS 121030Z 19006KT M04/M12 A3021 RMK A01 T10421122  RH  053%=      5-min Rain = 0
KPPS 121035Z 19006KT M04/M12 A3021 RMK A01 T10421123  RH  053%=      5-min Rain = 0
KPPS 121040Z 18006KT M04/M12 A3021 RMK A01 T10421123  RH  053%=      5-min Rain = 0
KPPS 121045Z 18006KT M05/M13 A3021 RMK A01 T10451125  RH  053%=      5-min Rain = 0
KPPS 121050Z 19006KT M05/M13 A3021 RMK A01 T10471125  RH  054%=      5-min Rain = 0
KPPS 121055Z 20006KT M05/M13 A3021 RMK A01 T10461125  RH  054%=      5-min Rain = 0
KPPS 121100Z 20006KT M05/M13 A3021 RMK A01 T10461125  RH  054%=      5-min Rain = 0
KPPS 121105Z 20007KT M05/M13 A3021 RMK A01 T10471125  RH  054%=      5-min Rain = 0
KPPS 121110Z 20006KT M04/M12 A3021 RMK A01 T10361119  RH  053%=      5-min Rain = 0
KPPS 121115Z 21005KT M04/M12 A3021 RMK A01 T10401123  RH  052%=      5-min Rain = 0
KPPS 121120Z 21006KT M05/M13 A3021 RMK A01 T10481129  RH  053%=      5-min Rain = 0
KPPS 121125Z 21006KT M05/M13 A3021 RMK A01 T10531129  RH  055%=      5-min Rain = 0
KPPS 121130Z 21007KT M05/M13 A3021 RMK A01 T10521126  RH  055%=      5-min Rain = 0
KPPS 121135Z 21007KT M04/M12 A3021 RMK A01 T10441120  RH  055%=      5-min Rain = 0
KPPS 121140Z 20006KT M04/M12 A302 RMK A01 T10391119  RH  053%=      5-min Rain = 0
KPPS 121145Z 20006KT M04/M12 A302 RMK A01 T10411121  RH  054%=      5-min Rain = 0
KPPS 121150Z 19006KT M04/M12 A302 RMK A01 T10391119  RH  053%=      5-min Rain = 0
KPPS 121155Z 19006KT M04/M12 A3019 RMK A01 T10401121  RH  053%=      5-min Rain = 0
KPPS 121200Z 18007KT M05/M13 A3019 RMK A01 T10521128  RH  055%=      5-min Rain = 0
KPPS 121205Z 18006KT M06/M13 A3019 RMK A01 T10551127  RH  056%=      5-min Rain = 0
KPPS 121210Z 18005KT M06/M13 A302 RMK A01 T10551127  RH  057%=      5-min Rain = 0
KPPS 121215Z 19005KT M05/M13 A302 RMK A01 T10531125  RH  057%=      5-min Rain = 0
KPPS 121220Z 19006KT M05/M13 A302 RMK A01 T10541126  RH  057%=      5-min Rain = 0
KPPS 121225Z 20006KT M05/M12 A302 RMK A01 T10481119  RH  057%=      5-min Rain = 0
KPPS 121230Z 19007KT M04/M12 A302 RMK A01 T10421119  RH  055%=      5-min Rain = 0
KPPS 121235Z 20007KT M05/M12 A302 RMK A01 T10471121  RH  056%=      5-min Rain = 0
KPPS 121240Z 20007KT M05/M12 A302 RMK A01 T10461121  RH  055%=      5-min Rain = 0
KPPS 121245Z 20007KT M05/M12 A3021 RMK A01 T10481123  RH  055%=      5-min Rain = 0
KPPS 121250Z 21008KT M05/M12 A3021 RMK A01 T10511124  RH  056%=      5-min Rain = 0
KPPS 121255Z 21008KT M05/M13 A3021 RMK A01 T10511125  RH  056%=      5-min Rain = 0
KPPS 121300Z 21009KT M05/M12 A3021 RMK A01 T10531124  RH  057%=      5-min Rain = 0
KPPS 121305Z 20009KT M05/M12 A3021 RMK A01 T10451120  RH  055%=      5-min Rain = 0
KPPS 121310Z 20009KT M05/M12 A3021 RMK A01 T10471122  RH  055%=      5-min Rain = 0
KPPS 121315Z 20009KT M05/M12 A3021 RMK A01 T10511123  RH  057%=      5-min Rain = 0
KPPS 121320Z 20008KT M05/M12 A3021 RMK A01 T10521123  RH  057%=      5-min Rain = 0
KPPS 121325Z 20008KT M05/M12 A3021 RMK A01 T10541123  RH  058%=      5-min Rain = 0
KPPS 121330Z 20009KT M05/M12 A3021 RMK A01 T10531122  RH  058%=      5-min Rain = 0
KPPS 121335Z 20009KT M05/M12 A3021 RMK A01 T10471120  RH  056%=      5-min Rain = 0
KPPS 121340Z 19009KT M05/M12 A3021 RMK A01 T10501123  RH  056%=      5-min Rain = 0
KPPS 121345Z 20008KT M05/M12 A3021 RMK A01 T10511122  RH  057%=      5-min Rain = 0
KPPS 121350Z 20008KT M05/M12 A3021 RMK A01 T10501122  RH  057%=      5-min Rain = 0
KPPS 121355Z 19009KT M05/M12 A3021 RMK A01 T10481120  RH  057%=      5-min Rain = 0
KPPS 121400Z 19009KT M05/M12 A3021 RMK A01 T10461121  RH  056%=      5-min Rain = 0
KPPS 121405Z 19012KT M05/M12 A3021 RMK A01 T10451120  RH  055%=      5-min Rain = 0
KPPS 121410Z 18013KT M03/M12 A302 RMK A01 T10331117  RH  052%=      5-min Rain = 0
KPPS 121415Z 18011KT M02/M12 A302 RMK A01 T10221117  RH  048%=      5-min Rain = 0
KPPS 121420Z 18012KT M02/M12 A302 RMK A01 T10191118  RH  047%=      5-min Rain = 0
KPPS 121425Z 18011KT M02/M12 A302 RMK A01 T10201118  RH  047%=      5-min Rain = 0
KPPS 121430Z 18011KT M02/M12 A302 RMK A01 T10181118  RH  046%=      5-min Rain = 0
KPPS 121435Z 18011KT M02/M12 A302 RMK A01 T10151118  RH  045%=      5-min Rain = 0
KPPS 121440Z 18009KT M01/M12 A3021 RMK A01 T10131117  RH  045%=      5-min Rain = 0
KPPS 121445Z 18011KT M01/M12 A3021 RMK A01 T10111117  RH  044%=      5-min Rain = 0
KPPS 121450Z 18011KT M01/M12 A302 RMK A01 T10071117  RH  043%=      5-min Rain = 0
KPPS 121455Z 18012KT M00/M12 A302 RMK A01 T10031117  RH  042%=      5-min Rain = 0
KPPS 121500Z 17013KT M00/M12 A302 RMK A01 T10021118  RH  041%=      5-min Rain = 0
KPPS 121505Z 17013KT 00/12 A302 RMK A01 T00000-118  RH  040%=      5-min Rain = 0
KPPS 121510Z 17012KT 00/M12 A302 RMK A01 T00031118  RH  040%=      5-min Rain = 0
KPPS 121515Z 17013KT 01/M12 A302 RMK A01 T00051117  RH  039%=      5-min Rain = 0
KPPS 121520Z 17013KT 01/M12 A302 RMK A01 T00081117  RH  039%=      5-min Rain = 0
KPPS 121525Z 17013G18KT 01/M12 A3021 RMK A01 T00111116  RH  038%=      5-min Rain = 0
KPPS 121530Z 16012KT 02/M12 A3021 RMK A01 T00161116  RH  037%=      5-min Rain = 0
KPPS 121535Z 16011KT 02/M12 A3021 RMK A01 T00191116  RH  036%=      5-min Rain = 0
KPPS 121540Z 15011KT 02/M12 A3022 RMK A01 T00231115  RH  035%=      5-min Rain = 0
KPPS 121545Z 15012KT 02/M12 A3022 RMK A01 T00221115  RH  035%=      5-min Rain = 0
KPPS 121550Z 15013KT 02/M12 A3022 RMK A01 T00221115  RH  035%=      5-min Rain = 0
KPPS 121555Z 15012KT 02/M12 A3022 RMK A01 T00201116  RH  036%=      5-min Rain = 0
KPPS 121600Z 16012KT 02/M12 A3022 RMK A01 T00181116  RH  036%=      5-min Rain = 0
KPPS 121605Z 16012KT 02/M12 A3022 RMK A01 T00171116  RH  036%=      5-min Rain = 0
KPPS 121610Z 16010KT 02/M11 A3022 RMK A01 T00221113  RH  036%=      5-min Rain = 0
KPPS 121615Z 16012KT 03/M12 A3022 RMK A01 T00271116  RH  034%=      5-min Rain = 0
KPPS 121620Z 15011KT 03/M12 A3022 RMK A01 T00271117  RH  034%=      5-min Rain = 0
KPPS 121625Z 16011KT 03/M12 A3022 RMK A01 T00271116  RH  034%=      5-min Rain = 0
KPPS 121630Z 16011KT 03/M11 A3022 RMK A01 T00341114  RH  033%=      5-min Rain = 0
KPPS 121635Z 16012KT 04/M11 A3022 RMK A01 T00401114  RH  031%=      5-min Rain = 0
KPPS 121640Z 18013KT 04/M11 A3022 RMK A01 T00431114  RH  031%=      5-min Rain = 0
KPPS 121645Z 18013G18KT 05/M12 A3021 RMK A01 T00471115  RH  030%=      5-min Rain = 0
KPPS 121650Z 18014KT 04/M12 A3021 RMK A01 T00441116  RH  030%=      5-min Rain = 0
KPPS 121655Z 18012KT 05/M11 A3022 RMK A01 T00451114  RH  030%=      5-min Rain = 0
KPPS 121700Z 18014KT 05/M12 A3022 RMK A01 T00451115  RH  030%=      5-min Rain = 0
KPPS 121705Z 18011KT 05/M11 A3022 RMK A01 T00481113  RH  030%=      5-min Rain = 0
KPPS 121710Z 17013KT 05/M11 A3021 RMK A01 T00481113  RH  030%=      5-min Rain = 0
KPPS 121715Z 17013KT 05/M11 A3021 RMK A01 T00511113  RH  029%=      5-min Rain = 0
KPPS 121720Z 17010KT 05/M11 A3021 RMK A01 T00531112  RH  029%=      5-min Rain = 0
KPPS 121725Z 18012KT 05/M11 A3021 RMK A01 T00521112  RH  029%=      5-min Rain = 0
KPPS 121730Z 18013KT 05/M11 A302 RMK A01 T00531112  RH  029%=      5-min Rain = 0
KPPS 121735Z 18012KT 05/M11 A302 RMK A01 T00541111  RH  029%=      5-min Rain = 0
KPPS 121740Z 18012G17KT 05/M11 A302 RMK A01 T00541110  RH  029%=      5-min Rain = 0
KPPS 121745Z 17012KT 06/M11 A302 RMK A01 T00581109  RH  029%=      5-min Rain = 0
KPPS 121750Z 18011KT 06/M11 A3019 RMK A01 T00621108  RH  028%=      5-min Rain = 0
KPPS 121755Z 18012G17KT 06/M11 A3019 RMK A01 T00611109  RH  028%=      5-min Rain = 0
KPPS 121800Z 18013KT 06/M11 A3018 RMK A01 T00631107  RH  028%=      5-min Rain = 0
KPPS 121805Z 18013KT 07/M11 A3017 RMK A01 T00701106  RH  027%=      5-min Rain = 0
KPPS 121810Z 19014KT 08/M11 A3017 RMK A01 T00761106  RH  026%=      5-min Rain = 0
KPPS 121815Z 18013KT 07/M11 A3017 RMK A01 T00741106  RH  026%=      5-min Rain = 0
KPPS 121820Z 19014KT 08/M11 A3016 RMK A01 T00781106  RH  026%=      5-min Rain = 0
KPPS 121825Z 18013KT 08/M11 A3015 RMK A01 T00811106  RH  025%=      5-min Rain = 0
KPPS 121830Z 19014KT 08/M11 A3014 RMK A01 T00841106  RH  025%=      5-min Rain = 0
KPPS 121835Z 19014KT 09/M11 A3014 RMK A01 T00881105  RH  024%=      5-min Rain = 0
KPPS 121840Z 19012KT 09/M10 A3014 RMK A01 T00941104  RH  023%=      5-min Rain = 0
KPPS 121845Z 19012G19KT 09/M11 A3013 RMK A01 T00941105  RH  023%=      5-min Rain = 0
KPPS 121850Z 19013G18KT 10/M11 A3013 RMK A01 T00961105  RH  023%=      5-min Rain = 0
KPPS 121855Z 20011G17KT 10/M10 A3013 RMK A01 T01011103  RH  023%=      5-min Rain = 0
KPPS 121900Z 19013G19KT 10/M10 A3012 RMK A01 T01031103  RH  022%=      5-min Rain = 0
KPPS 121905Z 20011G16KT 11/M10 A3012 RMK A01 T01081101  RH  022%=      5-min Rain = 0
KPPS 121910Z 20011KT 11/M10 A3012 RMK A01 T01091098  RH  022%=      5-min Rain = 0
KPPS 121915Z 20011KT 11/M10 A3012 RMK A01 T01121096  RH  022%=      5-min Rain = 0
KPPS 121920Z 21010KT 11/M09 A3011 RMK A01 T01121094  RH  023%=      5-min Rain = 0
KPPS 121925Z 19010G16KT 12/M09 A3011 RMK A01 T01151094  RH  022%=      5-min Rain = 0
KPPS 121930Z 20009KT 12/M09 A301 RMK A01 T01171092  RH  022%=      5-min Rain = 0
KPPS 121935Z 21011G16KT 12/M09 A301 RMK A01 T01201091  RH  022%=      5-min Rain = 0
KPPS 121940Z 20008G13KT 12/M09 A301 RMK A01 T01191092  RH  022%=      5-min Rain = 0
KPPS 121945Z 18008KT 13/M09 A301 RMK A01 T01251090  RH  021%=      5-min Rain = 0
KPPS 121950Z 18010G15KT 13/M09 A3009 RMK A01 T01271091  RH  021%=      5-min Rain = 0
KPPS 121955Z 19006KT 13/M09 A3009 RMK A01 T01281091  RH  021%=      5-min Rain = 0
KPPS 122000Z 19009G14KT 13/M09 A3009 RMK A01 T01291090  RH  021%=      5-min Rain = 0
KPPS 122005Z 18009KT 13/M09 A3008 RMK A01 T01311089  RH  021%=      5-min Rain = 0
KPPS 122010Z 19010KT 13/M09 A3008 RMK A01 T01331087  RH  021%=      5-min Rain = 0
KPPS 122015Z 17009KT 13/M09 A3008 RMK A01 T01341089  RH  020%=      5-min Rain = 0
KPPS 122020Z 17009KT 14/M09 A3008 RMK A01 T01381086  RH  020%=      5-min Rain = 0
KPPS 122025Z 17008G13KT 14/M09 A3008 RMK A01 T01391087  RH  020%=      5-min Rain = 0
KPPS 122030Z 18008KT 14/M09 A3007 RMK A01 T01431086  RH  020%=      5-min Rain = 0
KPPS 122035Z 17009KT 14/M08 A3007 RMK A01 T01441084  RH  020%=      5-min Rain = 0
KPPS 122040Z 17007KT 15/M08 A3007 RMK A01 T01471083  RH  020%=      5-min Rain = 0
KPPS 122045Z 15008KT 15/M08 A3007 RMK A01 T01481084  RH  019%=      5-min Rain = 0
KPPS 122050Z 13007KT 15/M09 A3007 RMK A01 T01491085  RH  019%=      5-min Rain = 0
KPPS 122055Z 13007KT 15/M08 A3007 RMK A01 T01501084  RH  019%=      5-min Rain = 0
KPPS 122100Z 12008KT 15/M09 A3007 RMK A01 T01501086  RH  019%=      5-min Rain = 0
KPPS 122105Z 12008KT 15/M09 A3006 RMK A01 T01501085  RH  019%=      5-min Rain = 0
KPPS 122110Z 09007KT 15/M09 A3007 RMK A01 T01511085  RH  019%=      5-min Rain = 0
KPPS 122115Z 11007G12KT 15/M08 A3006 RMK A01 T01521084  RH  019%=      5-min Rain = 0
KPPS 122120Z 15003KT 16/M08 A3006 RMK A01 T01591083  RH  018%=      5-min Rain = 0
KPPS 122125Z 14002KT 16/M08 A3006 RMK A01 T01621083  RH  018%=      5-min Rain = 0
KPPS 122130Z 27007KT 17/M09 A3006 RMK A01 T01681085  RH  017%=      5-min Rain = 0
KPPS 122135Z 27007KT 17/M09 A3006 RMK A01 T01671086  RH  017%=      5-min Rain = 0
KPPS 122140Z 26007KT 17/M09 A3006 RMK A01 T01671086  RH  017%=      5-min Rain = 0
KPPS 122145Z 29008KT 17/M08 A3006 RMK A01 T01671084  RH  017%=      5-min Rain = 0
KPPS 122150Z 27006KT 17/M09 A3006 RMK A01 T01661085  RH  017%=      5-min Rain = 0
KPPS 122155Z 25004KT 17/M09 A3006 RMK A01 T01661085  RH  017%=      5-min Rain = 0
KPPS 122200Z 28005G12KT 17/M08 A3006 RMK A01 T01691084  RH  017%=      5-min Rain = 0
KPPS 122205Z 24004KT 17/M08 A3006 RMK A01 T01671084  RH  017%=      5-min Rain = 0
KPPS 122210Z 28004KT 17/M08 A3006 RMK A01 T01711083  RH  017%=      5-min Rain = 0
KPPS 122215Z 31004G10KT 17/M09 A3006 RMK A01 T01691085  RH  017%=      5-min Rain = 0
KPPS 122220Z 31002KT 17/M08 A3006 RMK A01 T01701084  RH  017%=      5-min Rain = 0
KPPS 122225Z 23003KT 17/M08 A3006 RMK A01 T01731084  RH  016%=      5-min Rain = 0
KPPS 122230Z 15007KT 17/M08 A3006 RMK A01 T01651084  RH  017%=      5-min Rain = 0
KPPS 122235Z 14008KT 16/M08 A3006 RMK A01 T01611084  RH  018%=      5-min Rain = 0
KPPS 122240Z 13008KT 16/M08 A3006 RMK A01 T01601083  RH  018%=      5-min Rain = 0
KPPS 122245Z 12013KT 15/M08 A3006 RMK A01 T01531084  RH  019%=      5-min Rain = 0
KPPS 122250Z 12012KT 15/M08 A3007 RMK A01 T01451083  RH  020%=      5-min Rain = 0
KPPS 122255Z 13012KT 14/M08 A3007 RMK A01 T01421083  RH  020%=      5-min Rain = 0
KPPS 122300Z 13011KT 14/M08 A3007 RMK A01 T01421082  RH  020%=      5-min Rain = 0
KPPS 122305Z 12011KT 14/M08 A3007 RMK A01 T01411082  RH  020%=      5-min Rain = 0
KPPS 122310Z 12010KT 14/M08 A3008 RMK A01 T01381082  RH  021%=      5-min Rain = 0
KPPS 122315Z 11010KT 14/M08 A3008 RMK A01 T01361082  RH  021%=      5-min Rain = 0
KPPS 122320Z 11012KT 13/M08 A3008 RMK A01 T01311083  RH  022%=      5-min Rain = 0
KPPS 122325Z 12012KT 13/M08 A3009 RMK A01 T01321083  RH  022%=      5-min Rain = 0
KPPS 122330Z 12013KT 13/M08 A3009 RMK A01 T01311084  RH  022%=      5-min Rain = 0
KPPS 122335Z 12013KT 12/M09 A3008 RMK A01 T01231085  RH  022%=      5-min Rain = 0
KPPS 122340Z 12014KT 12/M09 A3009 RMK A01 T01201086  RH  023%=      5-min Rain = 0
KPPS 122345Z 12013KT 11/M09 A3009 RMK A01 T01131086  RH  024%=      5-min Rain = 0
KPPS 122350Z 12014KT 11/M09 A3009 RMK A01 T01081087  RH  024%=      5-min Rain = 0
KPPS 122355Z 12013KT 10/M09 A3009 RMK A01 T01021088  RH  025%=      5-min Rain = 0
KPPS 130000Z 12012KT 10/M09 A301 RMK A01 T00981090  RH  026%=      5-min Rain = 0
KPPS 130005Z 13009KT 09/M09 A301 RMK A01 T00931091  RH  026%=      5-min Rain = 0
KPPS 130010Z 13009KT 09/M09 A301 RMK A01 T00901091  RH  027%=      5-min Rain = 0
KPPS 130015Z 13011KT 09/M09 A301 RMK A01 T00861092  RH  027%=      5-min Rain = 0
KPPS 130020Z 13011KT 08/M09 A301 RMK A01 T00821092  RH  028%=      5-min Rain = 0
KPPS 130025Z 13008KT 08/M09 A301 RMK A01 T00781093  RH  028%=      5-min Rain = 0
KPPS 130030Z 13007KT 07/M09 A3011 RMK A01 T00731094  RH  029%=      5-min Rain = 0
KPPS 130035Z 13010KT 07/M09 A3012 RMK A01 T00711094  RH  030%=      5-min Rain = 0
KPPS 130040Z 13012KT 07/M09 A3012 RMK A01 T00701094  RH  030%=      5-min Rain = 0
KPPS 130045Z 13012KT 08/M09 A3012 RMK A01 T00771094  RH  029%=      5-min Rain = 0
KPPS 130050Z 14009KT 08/M10 A3012 RMK A01 T00761095  RH  029%=      5-min Rain = 0
KPPS 130055Z 15007KT 07/M10 A3013 RMK A01 T00711095  RH  029%=      5-min Rain = 0
KPPS 130100Z 13005KT 06/M10 A3014 RMK A01 T00641097  RH  030%=      5-min Rain = 0
KPPS 130105Z 13007KT 06/M10 A3014 RMK A01 T00561098  RH  032%=      5-min Rain = 0
KPPS 130110Z 13007KT 06/M10 A3014 RMK A01 T00571096  RH  032%=      5-min Rain = 0
KPPS 130115Z 13007KT 06/M10 A3014 RMK A01 T00561096  RH  032%=      5-min Rain = 0
KPPS 130120Z 13007KT 05/M10 A3015 RMK A01 T00481098  RH  034%=      5-min Rain = 0
KPPS 130125Z 12006KT 04/M10 A3015 RMK A01 T00431098  RH  035%=      5-min Rain = 0
KPPS 130130Z 12007KT 04/M10 A3016 RMK A01 T00441099  RH  035%=      5-min Rain = 0
KPPS 130135Z 13007KT 04/M10 A3015 RMK A01 T00431099  RH  035%=      5-min Rain = 0
KPPS 130140Z 14008KT 04/M10 A3015 RMK A01 T00381101  RH  035%=      5-min Rain = 0
KPPS 130145Z 14008KT 04/M10 A3016 RMK A01 T00371099  RH  036%=      5-min Rain = 0
KPPS 130150Z 15008KT 04/M10 A3016 RMK A01 T00371099  RH  036%=      5-min Rain = 0
KPPS 130155Z 16007KT 04/M10 A3016 RMK A01 T00381100  RH  036%=      5-min Rain = 0
KPPS 130200Z 15007KT 04/M10 A3017 RMK A01 T00371099  RH  036%=      5-min Rain = 0
KPPS 130205Z 14003KT 04/M10 A3018 RMK A01 T00391097  RH  036%=      5-min Rain = 0
KPPS 130210Z 10003KT 05/M10 A3018 RMK A01 T00481096  RH  034%=      5-min Rain = 0
KPPS 130215Z 07007KT 04/M10 A3019 RMK A01 T00371099  RH  036%=      5-min Rain = 0
KPPS 130220Z 10006KT 03/M10 A3019 RMK A01 T00321100  RH  037%=      5-min Rain = 0
KPPS 130225Z 13008KT 03/M10 A302 RMK A01 T00291101  RH  038%=      5-min Rain = 0
KPPS 130230Z 13009KT 02/M10 A302 RMK A01 T00241101  RH  039%=      5-min Rain = 0
KPPS 130235Z 13008KT 03/M10 A302 RMK A01 T00271099  RH  039%=      5-min Rain = 0
KPPS 130240Z 13008KT 03/M10 A302 RMK A01 T00251100  RH  039%=      5-min Rain = 0
KPPS 130245Z 14007KT 02/M10 A302 RMK A01 T00241101  RH  039%=      5-min Rain = 0
KPPS 130250Z 13007KT 02/M10 A302 RMK A01 T00221102  RH  039%=      5-min Rain = 0
KPPS 130255Z 12008KT 02/M10 A3021 RMK A01 T00211101  RH  040%=      5-min Rain = 0
KPPS 130300Z 12008KT 02/M10 A3021 RMK A01 T00231102  RH  039%=      5-min Rain = 0
KPPS 130305Z 12008KT 02/M10 A3021 RMK A01 T00201102  RH  040%=      5-min Rain = 0
KPPS 130310Z 09006KT 03/M10 A3022 RMK A01 T00281101  RH  038%=      5-min Rain = 0
KPPS 130315Z 09008KT 03/M10 A3022 RMK A01 T00261102  RH  038%=      5-min Rain = 0
KPPS 130320Z 11009KT 03/M10 A3022 RMK A01 T00331099  RH  037%=      5-min Rain = 0
KPPS 130325Z 11010KT 04/M10 A3023 RMK A01 T00381099  RH  036%=      5-min Rain = 0
KPPS 130330Z 11009KT 04/M10 A3023 RMK A01 T00361100  RH  036%=      5-min Rain = 0
KPPS 130335Z 11009KT 04/M10 A3023 RMK A01 T00371099  RH  036%=      5-min Rain = 0
KPPS 130340Z 09011G17KT 04/M10 A3024 RMK A01 T00391099  RH  036%=      5-min Rain = 0
KPPS 130345Z 08011KT 04/M10 A3025 RMK A01 T00361100  RH  036%=      5-min Rain = 0
KPPS 130350Z 08011KT 03/M10 A3025 RMK A01 T00341102  RH  036%=      5-min Rain = 0
KPPS 130355Z 07013KT 03/M10 A3026 RMK A01 T00341103  RH  036%=      5-min Rain = 0
KPPS 130400Z 07013G18KT 03/M11 A3027 RMK A01 T00341105  RH  035%=      5-min Rain = 0
KPPS 130405Z 08013KT 03/M11 A3027 RMK A01 T00341106  RH  035%=      5-min Rain = 0
KPPS 130410Z 08014KT 04/M11 A3027 RMK A01 T00361107  RH  034%=      5-min Rain = 0
KPPS 130415Z 06014KT 03/M11 A3028 RMK A01 T00341108  RH  034%=      5-min Rain = 0
KPPS 130420Z 07017G22KT 03/M11 A3028 RMK A01 T00281113  RH  034%=      5-min Rain = 0
KPPS 130425Z 07017KT 02/M12 A3029 RMK A01 T00231120  RH  034%=      5-min Rain = 0
KPPS 130430Z 07016G23KT 02/M12 A3029 RMK A01 T00211123  RH  033%=      5-min Rain = 0
KPPS 130435Z 07016G22KT 02/M13 A303 RMK A01 T00191125  RH  033%=      5-min Rain = 0
KPPS 130440Z 07014G19KT 02/M13 A303 RMK A01 T00171126  RH  033%=      5-min Rain = 0
KPPS 130445Z 07016G21KT 02/M13 A3031 RMK A01 T00161127  RH  034%=      5-min Rain = 0
KPPS 130450Z 07016G21KT 01/M13 A3031 RMK A01 T00141129  RH  033%=      5-min Rain = 0
KPPS 130455Z 07014G20KT 01/M13 A3031 RMK A01 T00121130  RH  034%=      5-min Rain = 0
KPPS 130500Z 07014G19KT 01/M13 A3032 RMK A01 T00111130  RH  034%=      5-min Rain = 0
KPPS 130505Z 07014KT 01/M13 A3032 RMK A01 T00111131  RH  034%=      5-min Rain = 0
KPPS 130510Z 07015G20KT 01/M13 A3032 RMK A01 T00101132  RH  034%=      5-min Rain = 0
KPPS 130515Z 07014G19KT 01/M13 A3033 RMK A01 T00091133  RH  033%=      5-min Rain = 0
KPPS 130520Z 06014G19KT 01/M13 A3034 RMK A01 T00091133  RH  034%=      5-min Rain = 0
KPPS 130525Z 07011KT 01/M13 A3034 RMK A01 T00071133  RH  034%=      5-min Rain = 0
KPPS 130530Z 06013KT 01/M13 A3034 RMK A01 T00051133  RH  035%=      5-min Rain = 0
KPPS 130535Z 06013KT 00/M13 A3034 RMK A01 T00041134  RH  035%=      5-min Rain = 0
KPPS 130540Z 07013KT 00/M13 A3034 RMK A01 T00041133  RH  035%=      5-min Rain = 0
KPPS 130545Z 07013KT 00/M13 A3035 RMK A01 T00041134  RH  035%=      5-min Rain = 0
KPPS 130550Z 07011KT 00/M13 A3035 RMK A01 T00021134  RH  035%=      5-min Rain = 0
KPPS 130555Z 07011KT 00/M13 A3035 RMK A01 T00021134  RH  035%=      5-min Rain = 0

Page generated in 0.009 seconds.